createdAt,value
2023-04-23T00:04:52.753Z,13.70
2023-04-23T00:09:57.659Z,13.40
2023-04-23T00:15:00.457Z,13.40
2023-04-23T00:20:03.131Z,13.60
2023-04-23T00:25:05.789Z,14.70
2023-04-23T00:30:09.254Z,15.30
2023-04-23T00:35:11.060Z,15.90
2023-04-23T00:40:13.736Z,16.20
2023-04-23T00:45:16.916Z,17.50
2023-04-23T00:50:20.827Z,17.50
2023-04-23T00:55:23.096Z,18.90
2023-04-23T01:00:25.310Z,20.30
2023-04-23T01:05:27.953Z,19.50
2023-04-23T01:10:32.813Z,19.20
2023-04-23T01:15:34.875Z,19.40
2023-04-23T01:20:38.161Z,19.30
2023-04-23T01:25:40.994Z,19.60
2023-04-23T01:30:44.369Z,18.10
2023-04-23T01:35:47.624Z,18.00
2023-04-23T01:40:49.731Z,18.20
2023-04-23T01:45:52.936Z,17.90
2023-04-23T01:50:55.272Z,16.90
2023-04-23T01:56:00.868Z,17.80
2023-04-23T02:01:02.943Z,17.20
2023-04-23T02:06:05.356Z,17.60
2023-04-23T02:11:07.409Z,18.10
2023-04-23T02:16:09.410Z,18.30
2023-04-23T02:21:13.453Z,18.30
2023-04-23T02:26:15.929Z,18.80
2023-04-23T02:31:18.843Z,18.60
2023-04-23T02:36:20.754Z,18.00
2023-04-23T02:41:22.831Z,17.60
2023-04-23T02:46:24.633Z,17.40
2023-04-23T02:51:27.484Z,17.80
2023-04-23T02:56:30.826Z,17.50
2023-04-23T03:01:32.938Z,18.60
2023-04-23T03:06:35.911Z,19.20
2023-04-23T03:11:38.529Z,19.00
2023-04-23T03:16:41.207Z,19.20
2023-04-23T03:21:43.749Z,20.40
2023-04-23T03:26:45.703Z,20.40
2023-04-23T03:31:47.628Z,20.90
2023-04-23T03:36:50.903Z,19.90
2023-04-23T03:41:53.577Z,20.70
2023-04-23T03:46:59.046Z,19.00
2023-04-23T03:52:01.377Z,19.80
2023-04-23T03:57:04.845Z,18.90
2023-04-23T04:02:12.138Z,18.60
2023-04-23T04:07:14.286Z,19.10
2023-04-23T04:12:16.758Z,19.00
2023-04-23T04:17:18.594Z,18.30
2023-04-23T04:22:20.927Z,18.10
2023-04-23T04:27:22.878Z,18.10
2023-04-23T04:32:24.819Z,18.60
2023-04-23T04:37:26.587Z,18.30
2023-04-23T04:42:28.889Z,17.40
2023-04-23T04:47:31.367Z,18.40
2023-04-23T04:52:33.524Z,18.60
2023-04-23T04:57:36.961Z,18.50
2023-04-23T05:02:39.252Z,17.80
2023-04-23T05:07:41.159Z,18.70
2023-04-23T05:12:43.772Z,19.40
2023-04-23T05:17:45.587Z,19.00
2023-04-23T05:22:48.639Z,19.10
2023-04-23T05:27:51.270Z,18.50
2023-04-23T05:32:53.421Z,19.10
2023-04-23T05:37:55.347Z,19.80
2023-04-23T05:42:58.705Z,19.60
2023-04-23T05:48:00.606Z,19.30
2023-04-23T05:53:03.081Z,19.30
2023-04-23T05:58:05.944Z,17.00
2023-04-23T06:03:08.218Z,15.00
2023-04-23T06:08:10.399Z,10.80
2023-04-23T06:13:12.534Z,9.70
2023-04-23T06:18:14.487Z,9.60
2023-04-23T06:23:17.610Z,9.80
2023-04-23T06:28:19.585Z,9.40
2023-04-23T06:33:50.974Z,9.90
2023-04-23T06:38:52.826Z,9.40
2023-04-23T06:43:55.277Z,9.50
2023-04-23T06:49:06.997Z,9.20
2023-04-23T06:54:09.069Z,9.70
2023-04-23T06:59:11.880Z,9.30
2023-04-23T07:04:22.230Z,9.20
2023-04-23T07:09:24.501Z,8.90
2023-04-23T07:14:26.665Z,8.70
2023-04-23T07:19:28.471Z,7.60
2023-04-23T07:24:30.942Z,7.50
2023-04-23T07:29:34.292Z,6.70
2023-04-23T07:34:39.480Z,6.70
2023-04-23T07:39:44.025Z,6.50
2023-04-23T07:44:46.484Z,6.50
2023-04-23T07:49:48.360Z,5.80
2023-04-23T07:54:50.462Z,5.80
2023-04-23T07:59:52.953Z,5.60
2023-04-23T08:04:55.489Z,5.60
2023-04-23T08:10:02.866Z,5.50
2023-04-23T08:15:06.020Z,4.70
2023-04-23T08:20:14.058Z,4.90
2023-04-23T08:25:16.569Z,4.60
2023-04-23T08:30:18.518Z,4.90
2023-04-23T08:35:20.705Z,5.10
2023-04-23T08:40:22.952Z,4.70
2023-04-23T08:45:26.273Z,4.30
2023-04-23T08:50:29.339Z,4.10
2023-04-23T08:55:33.852Z,4.10
2023-04-23T09:00:36.112Z,3.70
2023-04-23T09:05:38.186Z,3.70
2023-04-23T09:10:42.258Z,3.20
2023-04-23T09:15:44.535Z,3.00
2023-04-23T09:20:47.042Z,3.20
2023-04-23T09:25:50.094Z,3.20
2023-04-23T09:30:53.251Z,3.00
2023-04-23T09:35:55.471Z,2.80
2023-04-23T09:40:57.556Z,3.30
2023-04-23T09:45:59.692Z,2.90
2023-04-23T09:51:02.288Z,3.50
2023-04-23T09:56:04.454Z,2.90
2023-04-23T10:01:09.013Z,3.30
2023-04-23T10:06:36.893Z,3.60
2023-04-23T10:11:42.084Z,3.20
2023-04-23T10:16:49.283Z,3.70
2023-04-23T10:22:18.411Z,3.50
2023-04-23T10:27:33.337Z,3.70
2023-04-23T10:32:42.389Z,3.80
2023-04-23T10:37:48.451Z,4.00
2023-04-23T10:42:52.225Z,3.60
2023-04-23T10:47:57.378Z,4.00
2023-04-23T10:52:59.933Z,3.80
2023-04-23T10:58:04.712Z,4.20
2023-04-23T11:03:30.553Z,3.50
2023-04-23T11:08:35.422Z,3.80
2023-04-23T11:13:52.221Z,4.20
2023-04-23T11:19:05.277Z,3.80
2023-04-23T11:24:07.870Z,3.70
2023-04-23T11:29:14.535Z,4.10
2023-04-23T11:34:17.810Z,3.60
2023-04-23T11:39:27.072Z,3.50
2023-04-23T11:44:30.772Z,3.70
2023-04-23T11:49:33.085Z,3.70
2023-04-23T11:54:35.571Z,3.30
2023-04-23T11:59:38.111Z,3.90
2023-04-23T12:04:41.481Z,3.90
2023-04-23T12:09:46.211Z,3.00
2023-04-23T12:14:48.102Z,3.60
2023-04-23T12:19:51.142Z,3.30
2023-04-23T12:24:54.547Z,3.30
2023-04-23T12:30:04.214Z,3.60
2023-04-23T12:35:10.181Z,3.10
2023-04-23T12:40:12.841Z,2.80
2023-04-23T12:45:14.640Z,3.20
2023-04-23T12:50:17.024Z,3.40
2023-04-23T12:55:18.917Z,3.40
2023-04-23T13:00:21.148Z,3.70
2023-04-23T13:05:24.142Z,3.00
2023-04-23T13:10:26.452Z,2.90
2023-04-23T13:15:28.326Z,3.30
2023-04-23T13:20:30.912Z,3.20
2023-04-23T13:25:32.814Z,3.30
2023-04-23T13:30:35.157Z,3.30
2023-04-23T13:35:38.016Z,3.00
2023-04-23T13:40:40.051Z,3.30
2023-04-23T13:45:41.820Z,3.10
2023-04-23T13:50:44.766Z,3.10
2023-04-23T13:55:46.595Z,3.40
2023-04-23T14:00:48.718Z,3.30
2023-04-23T14:05:51.140Z,3.60
2023-04-23T14:10:53.168Z,3.20
2023-04-23T14:15:55.033Z,3.80
2023-04-23T14:20:57.294Z,3.20
2023-04-23T14:26:04.927Z,3.10
2023-04-23T14:31:08.000Z,3.20
2023-04-23T14:36:09.912Z,2.90
2023-04-23T14:41:12.061Z,2.90
2023-04-23T14:46:13.798Z,3.30
2023-04-23T14:51:16.165Z,2.90
2023-04-23T14:56:18.226Z,3.20
2023-04-23T15:01:20.440Z,3.20
2023-04-23T15:06:22.927Z,3.40
2023-04-23T15:11:25.114Z,3.10
2023-04-23T15:16:48.059Z,3.10
2023-04-23T15:21:51.161Z,3.00
2023-04-23T15:26:55.225Z,2.60
2023-04-23T15:31:58.940Z,3.30
2023-04-23T15:37:01.101Z,3.10
2023-04-23T15:42:03.486Z,3.30
2023-04-23T15:47:05.330Z,3.00
2023-04-23T15:52:07.387Z,3.00
2023-04-23T15:57:09.124Z,2.80
2023-04-23T16:02:11.273Z,2.70
2023-04-23T16:07:13.834Z,2.80
2023-04-23T16:12:16.617Z,2.70
2023-04-23T16:17:18.583Z,2.90
2023-04-23T16:22:20.722Z,3.90
2023-04-23T16:27:23.450Z,3.80
2023-04-23T16:32:26.036Z,3.70
2023-04-23T16:37:28.055Z,3.30
2023-04-23T16:42:29.988Z,3.70
2023-04-23T16:47:31.776Z,3.60
2023-04-23T16:52:33.849Z,3.30
2023-04-23T16:57:36.903Z,3.50
2023-04-23T17:02:43.697Z,3.30
2023-04-23T17:07:46.519Z,3.70
2023-04-23T17:12:53.961Z,3.90
2023-04-23T17:17:56.122Z,3.70
2023-04-23T17:22:58.523Z,3.50
2023-04-23T17:28:00.504Z,4.40
2023-04-23T17:33:02.768Z,4.30
2023-04-23T17:38:04.686Z,5.00
2023-04-23T17:43:07.130Z,4.10
2023-04-23T17:48:09.466Z,4.00
2023-04-23T17:53:11.808Z,4.60
2023-04-23T17:58:14.076Z,4.80
2023-04-23T18:03:18.706Z,4.70
2023-04-23T18:08:22.055Z,4.60
2023-04-23T18:13:24.551Z,4.50
2023-04-23T18:18:26.796Z,4.90
2023-04-23T18:23:29.301Z,4.80
2023-04-23T18:28:32.933Z,5.00
2023-04-23T18:33:49.293Z,4.70
2023-04-23T18:38:51.916Z,5.80
2023-04-23T18:43:54.168Z,5.10
2023-04-23T18:49:05.114Z,5.70
2023-04-23T18:54:07.264Z,5.50
2023-04-23T18:59:09.573Z,6.20
2023-04-23T19:04:11.766Z,19.80
2023-04-23T19:09:14.754Z,7.40
2023-04-23T19:14:19.051Z,8.00
2023-04-23T19:19:21.029Z,7.70
2023-04-23T19:24:23.112Z,8.30
2023-04-23T19:29:25.240Z,9.10
2023-04-23T19:34:27.859Z,9.70
2023-04-23T19:39:29.825Z,9.10
2023-04-23T19:44:31.832Z,10.60
2023-04-23T19:49:33.633Z,10.00
2023-04-23T19:54:35.789Z,10.20
2023-04-23T19:59:37.722Z,10.80
2023-04-23T20:04:40.074Z,10.20
2023-04-23T20:09:42.691Z,10.70
2023-04-23T20:14:45.013Z,10.90
2023-04-23T20:19:46.779Z,10.40
2023-04-23T20:24:48.971Z,11.60
2023-04-23T20:29:51.666Z,10.50
2023-04-23T20:34:54.757Z,11.40
2023-04-23T20:39:56.575Z,12.50
2023-04-23T20:44:59.130Z,12.00
2023-04-23T20:50:00.966Z,12.90
2023-04-23T20:55:03.558Z,13.00
2023-04-23T21:00:11.623Z,13.20
2023-04-23T21:05:13.855Z,15.90
2023-04-23T21:10:21.992Z,16.70
2023-04-23T21:15:44.660Z,19.40
2023-04-23T21:20:46.608Z,16.60
2023-04-23T21:25:48.687Z,16.10
2023-04-23T21:30:52.643Z,15.80
2023-04-23T21:35:54.924Z,15.60
2023-04-23T21:40:59.495Z,17.90
2023-04-23T21:46:02.146Z,20.30
2023-04-23T21:51:25.210Z,20.10
2023-04-23T21:56:27.258Z,25.20
2023-04-23T22:01:29.175Z,23.40
2023-04-23T22:06:31.287Z,25.30
2023-04-23T22:11:34.713Z,23.60
2023-04-23T22:16:37.347Z,21.20
2023-04-23T22:21:39.288Z,22.30
2023-04-23T22:26:41.277Z,23.60
2023-04-23T22:31:43.173Z,24.00
2023-04-23T22:36:45.709Z,24.10
2023-04-23T22:41:47.720Z,22.30
2023-04-23T22:46:50.435Z,23.70
2023-04-23T22:51:52.487Z,24.10
2023-04-23T22:56:54.481Z,22.40
2023-04-23T23:01:56.397Z,22.40
2023-04-23T23:06:58.570Z,24.90
2023-04-23T23:12:20.813Z,21.20
2023-04-23T23:17:24.801Z,20.30
2023-04-23T23:22:27.232Z,19.70
2023-04-23T23:27:29.592Z,20.50
2023-04-23T23:32:33.317Z,19.70
2023-04-23T23:37:36.160Z,20.30
2023-04-23T23:42:43.692Z,21.30
2023-04-23T23:47:48.331Z,19.50
2023-04-23T23:52:50.500Z,19.80
2023-04-23T23:57:52.498Z,18.40
